Time;durP1;ratioP1;P1;durP2;ratioP2;P2;SDS_P1;SDS_P2;PMS_P1;PMS_P2;Temp;Humidity;BMP_temperature;BMP_pressure;BME280_temperature;BME280_humidity;BME280_pressure;Samples;Min_cycle;Max_cycle;Signal;HPM_P1;HPM_P2
2021/11/24 00:01:57;;;;;;;;;180.50;176.00;7.80;67.40;;;;;;5054186;28;8828;-67
2021/11/24 00:04:23;;;;;;;;;192.75;181.00;7.70;68.10;;;;;;5054330;28;8791;-67
2021/11/24 00:06:48;;;;;;;;;174.25;166.25;7.60;68.90;;;;;;5054295;28;8890;-67
2021/11/24 00:09:14;;;;;;;;;173.50;164.25;7.90;68.80;;;;;;5054446;28;8767;-66
2021/11/24 00:11:40;;;;;;;;;157.00;149.50;8.10;67.70;;;;;;5054450;28;8786;-67
2021/11/24 00:14:05;;;;;;;;;150.50;127.75;7.90;68.20;;;;;;5054371;28;8860;-66
2021/11/24 00:16:31;;;;;;;;;159.50;151.50;8.10;67.90;;;;;;5051623;28;8787;-67
2021/11/24 00:18:57;;;;;;;;;174.75;167.50;8.20;67.40;;;;;;5054161;28;8777;-68
2021/11/24 00:21:23;;;;;;;;;186.00;182.50;8.40;66.30;;;;;;5054465;28;8807;-67
2021/11/24 00:23:48;;;;;;;;;177.50;154.50;8.30;66.60;;;;;;5054365;28;9441;-66
2021/11/24 00:26:14;;;;;;;;;215.25;202.25;8.40;66.30;;;;;;5054231;28;9457;-67
2021/11/24 00:28:40;;;;;;;;;237.25;212.75;8.40;65.90;;;;;;5054266;28;8809;-67
2021/11/24 00:31:06;;;;;;;;;246.00;235.75;8.30;66.00;;;;;;5053936;28;8783;-66
2021/11/24 00:33:32;;;;;;;;;207.25;199.00;8.30;66.40;;;;;;5053924;28;8783;-66
2021/11/24 00:36:00;;;;;;;;;194.25;183.00;8.00;67.40;;;;;;5053904;28;8897;-66
2021/11/24 00:38:25;;;;;;;;;213.50;190.00;7.70;68.90;;;;;;5053903;28;8848;-67
2021/11/24 00:40:51;;;;;;;;;205.25;194.00;8.00;68.10;;;;;;5053986;28;8873;-66
2021/11/24 00:43:17;;;;;;;;;164.25;159.50;7.90;68.00;;;;;;5053959;28;8857;-67
2021/11/24 00:45:43;;;;;;;;;162.75;156.50;7.90;68.20;;;;;;5053840;28;8805;-66
2021/11/24 00:48:09;;;;;;;;;166.50;154.50;7.90;68.00;;;;;;5053816;28;8783;-67
2021/11/24 00:50:35;;;;;;;;;173.75;163.25;8.10;67.50;;;;;;5054205;28;9611;-67
2021/11/24 00:53:01;;;;;;;;;174.00;161.75;7.90;68.60;;;;;;5054077;28;8770;-67
2021/11/24 00:55:27;;;;;;;;;189.00;180.25;7.70;69.30;;;;;;5053676;28;8892;-67
2021/11/24 00:57:52;;;;;;;;;188.75;176.75;8.00;68.00;;;;;;5053959;28;8774;-67
2021/11/24 01:00:18;;;;;;;;;217.25;199.00;8.10;67.40;;;;;;5054067;28;8778;-66
2021/11/24 01:02:45;;;;;;;;;203.75;182.25;8.00;67.50;;;;;;5055534;28;8783;-67
2021/11/24 01:05:11;;;;;;;;;223.75;211.25;8.10;67.30;;;;;;5057434;28;8876;-67
2021/11/24 01:07:37;;;;;;;;;225.75;212.75;8.00;67.50;;;;;;5057565;28;8838;-67
2021/11/24 01:10:05;;;;;;;;;224.25;214.00;7.80;68.20;;;;;;5057293;28;8791;-67
2021/11/24 01:12:32;;;;;;;;;213.75;206.25;7.90;67.90;;;;;;5057437;28;8779;-67
2021/11/24 01:14:57;;;;;;;;;228.50;219.75;8.00;67.90;;;;;;5057418;28;8791;-67
2021/11/24 01:17:23;;;;;;;;;208.25;197.75;8.00;68.10;;;;;;5057108;28;8771;-67
2021/11/24 01:19:49;;;;;;;;;170.75;161.00;8.00;67.80;;;;;;5057197;28;8819;-66
2021/11/24 01:22:15;;;;;;;;;143.25;139.25;7.30;70.30;;;;;;5057098;28;8775;-66
2021/11/24 01:24:41;;;;;;;;;132.50;128.25;7.40;70.30;;;;;;5057116;28;8803;-66
2021/11/24 01:27:07;;;;;;;;;123.75;117.50;7.50;69.80;;;;;;5057073;28;8751;-67
2021/11/24 01:29:33;;;;;;;;;132.50;120.50;7.80;68.90;;;;;;5057041;28;8767;-67
2021/11/24 01:31:59;;;;;;;;;154.50;145.00;8.00;67.90;;;;;;5057242;28;8763;-67
2021/11/24 01:34:25;;;;;;;;;151.25;144.50;8.30;67.00;;;;;;5057090;28;8770;-67
2021/11/24 01:36:51;;;;;;;;;141.75;136.00;8.50;66.30;;;;;;5056934;28;8763;-66
2021/11/24 01:39:17;;;;;;;;;171.75;165.25;8.40;66.60;;;;;;5057095;28;8767;-66
2021/11/24 01:41:43;;;;;;;;;181.25;169.75;8.30;66.60;;;;;;5056987;28;8763;-66
2021/11/24 01:44:20;;;;;;;;;166.75;158.50;8.40;66.20;;;;;;5057006;28;8819;-67
2021/11/24 01:46:55;;;;;;;;;142.50;137.50;8.60;66.80;;;;;;5057052;28;8799;-66
2021/11/24 01:49:23;;;;;;;;;144.00;138.00;8.30;66.70;;;;;;5056448;28;8807;-69
2021/11/24 01:51:49;;;;;;;;;164.25;158.50;8.10;67.40;;;;;;5056746;28;9385;-68
2021/11/24 01:54:18;;;;;;;;;178.00;172.00;7.90;67.90;;;;;;5056731;28;8796;-69
2021/11/24 01:56:44;;;;;;;;;183.75;174.00;8.00;67.80;;;;;;5056560;28;8885;-66
2021/11/24 01:59:11;;;;;;;;;186.25;165.75;8.10;67.40;;;;;;5056541;28;8759;-66
2021/11/24 02:01:42;;;;;;;;;182.00;168.25;8.10;67.30;;;;;;5056543;28;8779;-66
2021/11/24 02:04:11;;;;;;;;;171.25;160.50;8.10;67.50;;;;;;5056431;28;8767;-66
2021/11/24 02:06:38;;;;;;;;;162.50;156.25;8.10;68.40;;;;;;5056630;28;9478;-66
2021/11/24 02:09:05;;;;;;;;;166.00;159.25;8.10;67.60;;;;;;5056567;28;8785;-66
2021/11/24 02:11:36;;;;;;;;;178.50;167.75;8.00;67.70;;;;;;5056226;28;9425;-66
2021/11/24 02:14:02;;;;;;;;;165.50;153.00;7.90;67.90;;;;;;5055655;28;8763;-66
2021/11/24 02:16:28;;;;;;;;;178.25;163.25;7.80;68.50;;;;;;5056110;28;8829;-66
2021/11/24 02:18:54;;;;;;;;;163.25;154.50;7.40;70.30;;;;;;5056062;28;8771;-66
2021/11/24 02:21:19;;;;;;;;;164.50;159.25;7.20;71.10;;;;;;5055985;28;8837;-67
2021/11/24 02:23:46;;;;;;;;;159.00;148.75;7.40;70.80;;;;;;5055920;28;8891;-66
2021/11/24 02:26:12;;;;;;;;;151.25;143.50;7.60;69.80;;;;;;5056242;28;8797;-66
2021/11/24 02:28:39;;;;;;;;;155.75;148.25;7.80;68.70;;;;;;5055868;28;8899;-66
2021/11/24 02:31:06;;;;;;;;;159.75;156.00;7.80;67.90;;;;;;5055865;28;8770;-66
2021/11/24 02:33:32;;;;;;;;;146.25;141.75;7.90;67.90;;;;;;5055761;28;8767;-66
2021/11/24 02:35:58;;;;;;;;;133.50;128.00;7.90;67.90;;;;;;5055735;28;8830;-68
2021/11/24 02:38:24;;;;;;;;;136.75;126.25;7.80;67.90;;;;;;5055794;28;8759;-66
2021/11/24 02:40:49;;;;;;;;;134.00;129.25;8.00;67.60;;;;;;5055912;28;8836;-66
2021/11/24 02:43:15;;;;;;;;;150.50;141.75;7.80;68.20;;;;;;5055610;28;8794;-66
2021/11/24 02:45:41;;;;;;;;;159.25;151.50;7.70;68.80;;;;;;5055529;28;8770;-66
2021/11/24 02:48:07;;;;;;;;;161.75;160.75;7.40;69.50;;;;;;5055358;28;8783;-65
2021/11/24 02:50:33;;;;;;;;;171.75;166.75;7.00;71.70;;;;;;5055482;28;8822;-67
2021/11/24 02:52:59;;;;;;;;;169.00;162.00;7.20;70.50;;;;;;5055300;28;8766;-66
2021/11/24 02:55:25;;;;;;;;;179.25;169.00;6.80;71.80;;;;;;5055521;28;8811;-68
2021/11/24 02:57:52;;;;;;;;;174.25;168.75;6.50;73.40;;;;;;5055570;28;8856;-66
2021/11/24 03:00:20;;;;;;;;;172.75;164.75;6.40;74.10;;;;;;5054187;28;8791;-68
2021/11/24 03:02:46;;;;;;;;;182.75;176.00;7.00;71.70;;;;;;5055198;28;8877;-66
2021/11/24 03:05:14;;;;;;;;;162.75;156.00;7.10;70.70;;;;;;5055113;28;8785;-66
2021/11/24 03:07:40;;;;;;;;;184.50;173.75;7.00;70.70;;;;;;5055307;28;9572;-66
2021/11/24 03:10:08;;;;;;;;;176.75;170.75;7.00;70.50;;;;;;5055096;28;8766;-66
2021/11/24 03:12:34;;;;;;;;;171.25;167.50;7.20;69.90;;;;;;5055040;28;8779;-66
2021/11/24 03:15:01;;;;;;;;;156.50;148.50;7.30;69.40;;;;;;5054859;28;8822;-66
2021/11/24 03:17:27;;;;;;;;;136.75;128.00;7.60;68.10;;;;;;5053950;28;8781;-66
2021/11/24 03:19:52;;;;;;;;;129.00;122.50;7.80;67.40;;;;;;5055019;28;8795;-65
2021/11/24 03:22:24;;;;;;;;;103.25;100.25;7.70;67.50;;;;;;5055095;28;8767;-66
2021/11/24 03:24:57;;;;;;;;;124.50;124.50;7.80;67.50;;;;;;5054912;28;8888;-66
2021/11/24 03:27:26;;;;;;;;;119.50;118.75;7.80;67.40;;;;;;5054860;28;8790;-66
2021/11/24 03:29:52;;;;;;;;;103.75;100.25;7.80;67.40;;;;;;5054796;28;8771;-66
2021/11/24 03:32:18;;;;;;;;;114.75;111.25;8.00;66.60;;;;;;5054740;28;8755;-66
2021/11/24 03:34:45;;;;;;;;;102.75;101.00;7.80;66.40;;;;;;5054626;28;8829;-66
2021/11/24 03:37:10;;;;;;;;;102.50;100.25;7.70;67.10;;;;;;5054822;28;8787;-66
2021/11/24 03:39:37;;;;;;;;;111.25;104.25;7.80;66.80;;;;;;5054590;28;9436;-66
2021/11/24 03:42:03;;;;;;;;;110.00;104.25;7.90;66.10;;;;;;5054555;28;8881;-66
2021/11/24 03:44:29;;;;;;;;;124.25;114.75;7.50;67.70;;;;;;5054486;28;8779;-66
2021/11/24 03:46:54;;;;;;;;;139.75;131.75;7.60;67.70;;;;;;5054697;28;8751;-66
2021/11/24 03:49:21;;;;;;;;;136.75;133.00;7.40;68.10;;;;;;5054277;28;8857;-66
2021/11/24 03:51:48;;;;;;;;;141.00;135.25;7.60;68.00;;;;;;5054662;28;9421;-66
2021/11/24 03:54:14;;;;;;;;;126.50;122.50;7.50;67.50;;;;;;5054636;28;9441;-66
2021/11/24 03:56:39;;;;;;;;;133.75;127.50;7.50;67.60;;;;;;5054632;28;8838;-66
2021/11/24 03:59:05;;;;;;;;;134.75;128.25;7.50;67.30;;;;;;5054414;28;8798;-66
2021/11/24 04:01:31;;;;;;;;;123.25;118.00;7.60;67.50;;;;;;5054337;28;8775;-66
2021/11/24 04:03:57;;;;;;;;;101.25;92.25;7.50;66.80;;;;;;5054564;28;8779;-66
2021/11/24 04:06:25;;;;;;;;;115.00;112.50;7.30;68.10;;;;;;5054261;28;8799;-66
2021/11/24 04:08:52;;;;;;;;;120.75;117.75;7.20;68.60;;;;;;5054147;28;8790;-68
2021/11/24 04:11:18;;;;;;;;;107.00;104.50;7.40;67.70;;;;;;5054176;28;8782;-67
2021/11/24 04:13:43;;;;;;;;;106.00;102.25;7.50;67.20;;;;;;5054406;28;8779;-67
2021/11/24 04:16:09;;;;;;;;;103.50;98.50;7.70;66.70;;;;;;5054295;28;8825;-68
2021/11/24 04:18:35;;;;;;;;;94.75;81.75;7.70;66.40;;;;;;5054143;28;8763;-69
2021/11/24 04:21:01;;;;;;;;;89.75;78.00;7.20;67.90;;;;;;5054611;28;8798;-66
2021/11/24 04:23:27;;;;;;;;;93.00;83.50;6.90;69.50;;;;;;5054109;28;8843;-68
2021/11/24 04:25:53;;;;;;;;;95.25;84.50;6.60;70.70;;;;;;5054326;28;8779;-68
2021/11/24 04:28:19;;;;;;;;;98.75;87.25;6.80;70.20;;;;;;5054082;28;8779;-68
2021/11/24 04:30:45;;;;;;;;;98.25;90.25;6.80;71.40;;;;;;5054054;28;8798;-67
2021/11/24 04:33:11;;;;;;;;;96.00;84.75;7.10;69.40;;;;;;5054023;28;8779;-72
2021/11/24 04:35:38;;;;;;;;;96.25;88.00;7.20;68.60;;;;;;5054836;28;8806;-67
2021/11/24 04:38:04;;;;;;;;;105.75;100.50;7.30;67.60;;;;;;5058116;28;8860;-68
2021/11/24 04:40:30;;;;;;;;;109.25;105.00;7.70;67.00;;;;;;5057440;28;8780;-67
2021/11/24 04:42:55;;;;;;;;;102.75;98.75;7.50;67.60;;;;;;5057781;28;8775;-68
2021/11/24 04:45:22;;;;;;;;;110.25;104.75;7.70;66.90;;;;;;5057749;28;8897;-66
2021/11/24 04:47:48;;;;;;;;;105.50;102.00;7.70;66.80;;;;;;5057501;28;8811;-67
2021/11/24 04:50:16;;;;;;;;;115.25;113.00;7.60;67.20;;;;;;5057976;28;9457;-68
2021/11/24 04:52:42;;;;;;;;;121.50;118.75;7.00;69.50;;;;;;5057848;28;8779;-68
2021/11/24 04:55:09;;;;;;;;;128.00;121.50;6.90;70.20;;;;;;5057804;28;8825;-68
2021/11/24 04:57:36;;;;;;;;;111.50;108.25;7.20;69.40;;;;;;5057547;28;8789;-68
2021/11/24 05:00:06;;;;;;;;;126.25;121.75;7.40;68.40;;;;;;5057524;28;8767;-69
2021/11/24 05:02:32;;;;;;;;;125.25;112.50;7.60;67.80;;;;;;5057719;28;8773;-66
2021/11/24 05:04:58;;;;;;;;;113.50;111.75;7.50;68.20;;;;;;5057696;28;8770;-69
2021/11/24 05:07:24;;;;;;;;;118.25;116.00;7.60;67.90;;;;;;5057625;28;8767;-68
2021/11/24 05:09:49;;;;;;;;;122.75;118.25;7.30;68.70;;;;;;5056404;28;8801;-67
2021/11/24 05:12:15;;;;;;;;;121.25;118.25;7.30;69.20;;;;;;5057323;28;8755;-67
2021/11/24 05:14:42;;;;;;;;;143.75;140.75;7.10;69.90;;;;;;5057264;28;8814;-68
2021/11/24 05:17:12;;;;;;;;;151.75;146.75;7.20;69.40;;;;;;5057206;28;8809;-68
2021/11/24 05:19:40;;;;;;;;;149.75;143.75;7.30;69.40;;;;;;5057477;28;8897;-67
2021/11/24 05:22:06;;;;;;;;;152.75;148.00;7.50;68.50;;;;;;5057065;28;8767;-68
2021/11/24 05:24:32;;;;;;;;;130.75;127.00;7.60;67.80;;;;;;5057142;28;8779;-67
2021/11/24 05:26:58;;;;;;;;;130.75;126.25;7.40;68.50;;;;;;5057141;28;8772;-67
2021/11/24 05:29:24;;;;;;;;;116.50;114.00;7.40;68.60;;;;;;5057358;28;8769;-68
2021/11/24 05:31:49;;;;;;;;;117.25;112.50;7.40;68.50;;;;;;5056842;28;8840;-68
2021/11/24 05:34:15;;;;;;;;;110.75;104.00;7.40;68.90;;;;;;5056952;28;8751;-67
2021/11/24 05:36:41;;;;;;;;;109.00;105.25;7.40;68.80;;;;;;5056833;28;8823;-68
2021/11/24 05:39:09;;;;;;;;;112.00;108.25;7.30;69.10;;;;;;5055844;28;8801;-67
2021/11/24 05:41:39;;;;;;;;;112.50;109.00;6.70;71.60;;;;;;5055327;28;8787;-67
2021/11/24 05:47:11;;;;;;;;;119.50;110.75;7.40;69.50;;;;;;4992888;28;8870;-68
2021/11/24 05:49:38;;;;;;;;;109.50;105.25;7.40;68.70;;;;;;4994459;28;9459;-69
2021/11/24 05:52:05;;;;;;;;;99.75;94.00;7.60;68.20;;;;;;4994594;28;9419;-68
2021/11/24 05:54:30;;;;;;;;;112.25;109.25;7.80;67.70;;;;;;4994727;28;8918;-68
2021/11/24 05:56:56;;;;;;;;;102.25;96.75;7.90;67.10;;;;;;4993389;28;8934;-67
2021/11/24 05:59:22;;;;;;;;;115.50;110.00;8.10;66.10;;;;;;4993812;28;8807;-67
2021/11/24 06:01:48;;;;;;;;;121.00;116.25;8.10;66.30;;;;;;4995102;28;8814;-67
2021/11/24 06:04:13;;;;;;;;;136.75;134.75;8.00;66.80;;;;;;4994314;28;8902;-70
2021/11/24 06:06:39;;;;;;;;;144.00;139.50;7.90;67.30;;;;;;4994219;28;9449;-69
2021/11/24 06:09:06;;;;;;;;;144.25;139.50;7.90;66.90;;;;;;4994626;28;8776;-69
2021/11/24 06:11:32;;;;;;;;;135.00;131.00;7.90;67.30;;;;;;4994783;28;9505;-71
2021/11/24 06:13:58;;;;;;;;;134.50;127.25;7.70;67.60;;;;;;4994717;28;8779;-69
2021/11/24 06:16:24;;;;;;;;;137.75;134.00;7.60;68.20;;;;;;4994698;28;9462;-70
2021/11/24 06:18:50;;;;;;;;;130.75;127.25;7.80;67.80;;;;;;4994587;28;8780;-71
2021/11/24 06:21:19;;;;;;;;;143.00;125.75;7.90;67.40;;;;;;4994404;28;8784;-70
2021/11/24 06:23:46;;;;;;;;;211.25;199.75;8.10;66.60;;;;;;5034145;28;8767;-70
2021/11/24 06:26:12;;;;;;;;;236.00;225.25;8.30;66.10;;;;;;5055879;28;8794;-70
2021/11/24 06:28:38;;;;;;;;;270.00;257.50;8.10;66.50;;;;;;5055788;28;8806;-70
2021/11/24 06:31:04;;;;;;;;;264.75;252.25;8.10;66.50;;;;;;5055868;28;8751;-70
2021/11/24 06:33:30;;;;;;;;;243.25;231.00;8.00;66.40;;;;;;5055766;28;8815;-70
2021/11/24 06:35:56;;;;;;;;;254.00;236.75;8.00;66.40;;;;;;5055676;28;8787;-70
2021/11/24 06:38:22;;;;;;;;;243.50;233.25;8.00;66.40;;;;;;5055640;28;8775;-71
2021/11/24 06:40:49;;;;;;;;;263.75;245.75;7.70;67.40;;;;;;5055718;28;8789;-70
2021/11/24 06:43:15;;;;;;;;;235.00;210.50;7.70;67.80;;;;;;5055603;28;8782;-70
2021/11/24 06:45:41;;;;;;;;;228.50;218.75;7.60;68.20;;;;;;5055534;28;8787;-70
2021/11/24 06:48:08;;;;;;;;;288.75;266.25;7.50;68.50;;;;;;5054432;28;9479;-70
2021/11/24 06:50:35;;;;;;;;;278.00;258.75;7.40;69.00;;;;;;5054583;28;8786;-71
2021/11/24 06:53:02;;;;;;;;;252.25;232.50;7.20;70.20;;;;;;5055614;28;8856;-70
2021/11/24 06:55:28;;;;;;;;;255.25;238.75;7.50;68.90;;;;;;5055305;28;8778;-71
2021/11/24 06:57:54;;;;;;;;;279.25;255.00;7.70;68.10;;;;;;5055050;28;9607;-70
2021/11/24 07:00:20;;;;;;;;;257.25;242.75;7.70;67.80;;;;;;5055078;28;9486;-70
2021/11/24 07:02:46;;;;;;;;;264.25;243.25;7.80;67.80;;;;;;5055244;28;8787;-69
2021/11/24 07:05:13;;;;;;;;;238.25;224.00;8.20;66.90;;;;;;5055115;28;8802;-70
2021/11/24 07:07:39;;;;;;;;;231.00;220.50;8.30;66.30;;;;;;5037731;28;9438;-70
2021/11/24 07:10:06;;;;;;;;;228.00;219.75;8.40;65.60;;;;;;5055164;28;8759;-70
2021/11/24 07:12:32;;;;;;;;;213.00;202.75;8.40;65.00;;;;;;5055022;28;8805;-70
2021/11/24 07:14:58;;;;;;;;;162.75;153.75;8.40;64.80;;;;;;5055144;28;9448;-69
2021/11/24 07:17:25;;;;;;;;;185.50;177.50;8.30;65.20;;;;;;5055138;28;8771;-69
2021/11/24 07:19:51;;;;;;;;;205.25;192.25;8.40;65.20;;;;;;5054924;28;8803;-72
2021/11/24 07:22:17;;;;;;;;;185.75;176.50;8.30;65.10;;;;;;5054847;28;9410;-68
2021/11/24 07:24:43;;;;;;;;;191.25;179.75;8.10;66.10;;;;;;5055085;28;8801;-67
2021/11/24 07:27:09;;;;;;;;;199.00;191.00;8.20;66.10;;;;;;5054579;28;8771;-67
2021/11/24 07:29:35;;;;;;;;;202.25;191.00;8.30;65.50;;;;;;5054791;28;8810;-67
2021/11/24 07:32:00;;;;;;;;;213.75;203.50;8.30;65.40;;;;;;5054604;28;8807;-67
2021/11/24 07:34:26;;;;;;;;;209.00;199.75;8.30;65.70;;;;;;5054563;28;8775;-67
2021/11/24 07:36:52;;;;;;;;;221.75;213.00;8.30;66.10;;;;;;5054594;28;8779;-67
2021/11/24 07:39:19;;;;;;;;;251.25;235.50;8.30;66.20;;;;;;5054538;28;8889;-66
2021/11/24 07:41:44;;;;;;;;;286.75;263.25;8.30;66.10;;;;;;5054437;28;8778;-70
2021/11/24 07:44:10;;;;;;;;;265.25;254.50;8.60;65.90;;;;;;5054443;28;8806;-68
2021/11/24 07:46:36;;;;;;;;;268.25;241.50;8.60;66.10;;;;;;5054494;28;8763;-69
2021/11/24 07:49:02;;;;;;;;;199.25;187.50;8.70;66.40;;;;;;5054398;28;8811;-67
2021/11/24 07:51:28;;;;;;;;;167.25;161.75;8.90;65.80;;;;;;5054463;28;8767;-68
2021/11/24 07:53:54;;;;;;;;;158.00;149.50;9.10;65.50;;;;;;5054063;28;8836;-68
2021/11/24 07:56:23;;;;;;;;;146.25;137.25;9.40;64.60;;;;;;5054265;28;8837;-68
2021/11/24 07:58:49;;;;;;;;;126.50;120.50;8.70;66.00;;;;;;5054307;28;8766;-68
2021/11/24 08:01:14;;;;;;;;;120.00;102.25;8.30;68.00;;;;;;5054579;28;8767;-68
2021/11/24 08:03:41;;;;;;;;;126.75;122.75;8.80;66.80;;;;;;5054311;28;8906;-68
2021/11/24 08:06:07;;;;;;;;;132.50;128.00;8.50;66.70;;;;;;5054201;28;8767;-69
2021/11/24 08:08:33;;;;;;;;;118.75;113.50;8.20;68.20;;;;;;5054280;28;8797;-69
2021/11/24 08:10:59;;;;;;;;;136.25;132.75;7.80;69.30;;;;;;5053555;28;8779;-73
2021/11/24 08:13:26;;;;;;;;;143.50;137.50;7.30;71.50;;;;;;5054503;28;8751;-69
2021/11/24 08:15:51;;;;;;;;;132.25;125.75;7.30;71.90;;;;;;5054073;28;8801;-69
2021/11/24 08:18:17;;;;;;;;;146.00;136.75;7.70;70.80;;;;;;5054342;28;8771;-68
2021/11/24 08:20:43;;;;;;;;;139.50;130.00;8.10;69.60;;;;;;5054364;28;8807;-68
2021/11/24 08:23:10;;;;;;;;;148.00;136.50;8.50;68.30;;;;;;5054078;28;8775;-68
2021/11/24 08:25:36;;;;;;;;;153.50;135.50;8.20;68.80;;;;;;5054135;28;8767;-68
2021/11/24 08:28:02;;;;;;;;;159.25;147.00;8.60;68.10;;;;;;5054038;28;8849;-69
2021/11/24 08:30:28;;;;;;;;;148.75;143.00;8.80;66.50;;;;;;5053810;28;8783;-74
2021/11/24 08:32:54;;;;;;;;;154.50;144.50;8.90;66.50;;;;;;5053974;28;8777;-72
2021/11/24 08:35:21;;;;;;;;;143.50;132.75;8.80;67.10;;;;;;5053926;28;8815;-73
2021/11/24 08:37:47;;;;;;;;;162.00;147.25;8.60;67.80;;;;;;5053763;28;8771;-72
2021/11/24 08:40:14;;;;;;;;;161.50;152.50;8.20;69.30;;;;;;5053676;28;8852;-78
2021/11/24 08:42:40;;;;;;;;;149.50;141.50;8.80;67.60;;;;;;5053005;28;8884;-74
2021/11/24 08:45:09;;;;;;;;;149.50;140.75;9.20;66.30;;;;;;5052866;28;8775;-74
2021/11/24 08:47:35;;;;;;;;;161.50;146.50;9.20;65.10;;;;;;5052488;28;8772;-70
2021/11/24 08:50:01;;;;;;;;;139.75;135.50;8.60;68.00;;;;;;5050053;28;8809;-70
2021/11/24 08:52:27;;;;;;;;;127.50;121.75;8.80;67.70;;;;;;5052577;28;8761;-71
2021/11/24 08:54:53;;;;;;;;;142.00;125.25;8.70;67.60;;;;;;5052519;28;9397;-68
2021/11/24 08:57:19;;;;;;;;;119.00;115.25;8.30;69.60;;;;;;5052495;28;8755;-75
2021/11/24 08:59:47;;;;;;;;;132.25;127.25;8.10;70.70;;;;;;5051480;28;8777;-77
2021/11/24 09:02:13;;;;;;;;;142.50;120.50;8.50;69.40;;;;;;5052651;28;8759;-72
2021/11/24 09:04:39;;;;;;;;;133.25;126.00;8.30;70.30;;;;;;5052369;28;8866;-71
2021/11/24 09:07:05;;;;;;;;;125.75;121.75;8.20;70.20;;;;;;5052323;28;8922;-71
2021/11/24 09:09:30;;;;;;;;;127.00;122.25;8.10;70.60;;;;;;5052472;28;8767;-72
2021/11/24 09:11:56;;;;;;;;;115.50;106.50;8.20;70.10;;;;;;5051237;28;8779;-75
2021/11/24 09:14:23;;;;;;;;;121.50;115.25;8.00;70.60;;;;;;5052589;28;8775;-72
2021/11/24 09:16:49;;;;;;;;;107.00;104.75;8.30;70.40;;;;;;5052139;28;8799;-73
2021/11/24 09:19:15;;;;;;;;;107.00;100.75;8.60;70.00;;;;;;5052324;28;8779;-71
2021/11/24 09:21:40;;;;;;;;;111.00;106.25;8.40;70.90;;;;;;5053458;28;8783;-72
2021/11/24 09:24:12;;;;;;;;;87.25;79.25;8.20;71.10;;;;;;5055999;28;8756;-73
2021/11/24 09:26:54;;;;;;;;;97.50;92.00;8.20;71.20;;;;;;5052777;28;8787;-73
2021/11/24 09:29:20;;;;;;;;;101.50;98.00;8.30;70.90;;;;;;5053999;28;9000;-73
2021/11/24 09:31:46;;;;;;;;;97.00;94.00;8.70;69.50;;;;;;5056000;28;8776;-74
2021/11/24 09:34:12;;;;;;;;;96.50;95.00;8.90;69.10;;;;;;5055672;28;9484;-73
2021/11/24 09:36:40;;;;;;;;;107.75;103.25;9.60;67.40;;;;;;5056846;28;8787;-73
2021/11/24 09:39:06;;;;;;;;;108.00;97.75;10.50;64.80;;;;;;5056774;28;8902;-73
2021/11/24 09:41:38;;;;;;;;;110.25;103.75;11.10;62.60;;;;;;5056528;28;8984;-72
2021/11/24 09:44:05;;;;;;;;;86.75;82.75;11.40;61.40;;;;;;5057046;28;8763;-71
2021/11/24 09:46:32;;;;;;;;;82.50;71.75;10.60;62.40;;;;;;5056749;28;8779;-72
2021/11/24 09:49:01;;;;;;;;;77.00;64.50;9.70;66.00;;;;;;5056413;28;8806;-72
2021/11/24 09:51:30;;;;;;;;;78.50;66.50;9.20;68.30;;;;;;5056490;28;8820;-71
2021/11/24 09:53:59;;;;;;;;;79.25;66.25;9.30;68.40;;;;;;5056821;28;8877;-70
2021/11/24 09:56:25;;;;;;;;;80.00;68.25;9.50;67.50;;;;;;5056414;28;8802;-71
2021/11/24 09:58:51;;;;;;;;;82.25;75.25;10.00;66.90;;;;;;5056558;28;8789;-72
2021/11/24 10:01:17;;;;;;;;;72.25;62.75;11.00;64.70;;;;;;5053399;28;8768;-73
2021/11/24 10:03:43;;;;;;;;;77.25;66.00;13.20;59.20;;;;;;5055367;28;8785;-70
2021/11/24 10:06:09;;;;;;;;;70.75;57.25;16.10;51.60;;;;;;5056429;28;8844;-71
2021/11/24 10:08:35;;;;;;;;;67.50;55.50;18.70;43.20;;;;;;5056202;28;8785;-73
2021/11/24 10:11:02;;;;;;;;;69.25;59.50;19.00;42.70;;;;;;5056074;28;8913;-72
2021/11/24 10:13:28;;;;;;;;;73.75;63.75;20.00;40.10;;;;;;5056410;28;8775;-72
2021/11/24 10:15:58;;;;;;;;;68.50;60.00;22.00;36.00;;;;;;5056238;28;8892;-72
2021/11/24 10:18:28;;;;;;;;;69.00;60.75;21.80;35.20;;;;;;5056275;28;8771;-72
2021/11/24 10:21:03;;;;;;;;;68.00;59.33;23.20;34.30;;;;;;5055732;28;8803;-73
2021/11/24 10:23:32;;;;;;;;;64.75;54.75;23.90;32.10;;;;;;5056183;28;8759;-72
2021/11/24 10:26:21;;;;;;;;;66.25;56.75;23.20;33.80;;;;;;5055788;28;8775;-73
2021/11/24 10:28:53;;;;;;;;;63.50;52.75;23.00;33.20;;;;;;5056005;28;8863;-74
2021/11/24 10:31:58;;;;;;;;;62.67;52.33;24.40;31.00;;;;;;5044715;28;8761;-73
2021/11/24 10:34:33;;;;;;;;;68.75;58.75;25.70;29.10;;;;;;4993587;28;8961;-75
2021/11/24 10:37:05;;;;;;;;;63.33;52.67;25.40;29.50;;;;;;4993966;28;8856;-73
2021/11/24 10:39:48;;;;;;;;;70.50;63.50;25.50;28.80;;;;;;4994140;28;8786;-72
2021/11/24 10:42:23;;;;;;;;;64.75;53.50;26.20;28.30;;;;;;4994159;28;8868;-70
2021/11/24 10:45:10;;;;;;;;;61.33;51.00;25.70;28.40;;;;;;4994043;28;9449;-72
2021/11/24 10:47:48;;;;;;;;;62.00;52.00;26.00;28.00;;;;;;4993926;28;8767;-72
2021/11/24 10:50:19;;;;;;;;;64.50;53.75;25.70;28.40;;;;;;4993960;28;8807;-71
2021/11/24 10:52:47;;;;;;;;;67.33;57.67;26.20;28.60;;;;;;4993108;28;8856;-67
2021/11/24 10:55:14;;;;;;;;;57.00;48.00;27.30;26.90;;;;;;4993817;28;8802;-68
2021/11/24 10:57:43;;;;;;;;;61.50;50.50;27.30;26.60;;;;;;4993935;28;8797;-69
2021/11/24 11:00:17;;;;;;;;;58.67;48.67;28.00;26.60;;;;;;4992408;28;8778;-68
2021/11/24 11:02:45;;;;;;;;;61.00;51.00;27.60;25.80;;;;;;4974409;28;8784;-68
2021/11/24 11:05:24;;;;;;;;;62.25;51.25;28.70;24.90;;;;;;4974337;28;8821;-68
2021/11/24 11:07:50;;;;;;;;;67.25;58.00;27.00;26.30;;;;;;4992891;28;8797;-68
2021/11/24 11:10:34;;;;;;;;;66.50;56.75;27.40;26.50;;;;;;5035050;28;8801;-67
2021/11/24 11:13:08;;;;;;;;;67.50;56.25;27.20;26.30;;;;;;5052014;28;8776;-70
2021/11/24 11:15:39;;;;;;;;;65.00;53.00;28.10;26.00;;;;;;5054885;28;8812;-65
2021/11/24 11:18:20;;;;;;;;;62.75;51.25;27.60;25.80;;;;;;5055034;28;8798;-64
2021/11/24 11:20:51;;;;;;;;;60.33;50.00;28.60;24.80;;;;;;5055135;28;9439;-66
2021/11/24 11:23:28;;;;;;;;;68.00;58.50;27.60;25.50;;;;;;5054840;28;8838;-66
2021/11/24 11:26:01;;;;;;;;;65.00;54.00;26.40;26.50;;;;;;5055069;28;8752;-65
2021/11/24 11:28:43;;;;;;;;;54.67;45.67;21.60;28.60;;;;;;5054742;28;8767;-65
2021/11/24 11:31:11;;;;;;;;;62.00;51.50;22.50;30.00;;;;;;5044773;28;8912;-66
2021/11/24 11:33:52;;;;;;;;;64.25;53.25;25.30;27.60;;;;;;5034656;28;8782;-65
2021/11/24 11:36:19;;;;;;;;;63.33;52.00;25.00;26.90;;;;;;5034779;28;9512;-66
2021/11/24 11:38:50;;;;;;;;;58.00;49.00;26.60;26.00;;;;;;5034559;28;8758;-65
2021/11/24 11:41:18;;;;;;;;;58.33;49.33;27.00;25.10;;;;;;5034603;28;8774;-66
2021/11/24 11:43:48;;;;;;;;;67.75;56.00;25.90;25.60;;;;;;5034556;28;8777;-66
2021/11/24 11:46:16;;;;;;;;;63.00;52.75;22.70;28.20;;;;;;5035754;28;8769;-66
2021/11/24 11:48:43;;;;;;;;;63.25;53.25;21.90;29.40;;;;;;5054113;28;8816;-65
2021/11/24 11:51:10;;;;;;;;;65.75;54.00;22.20;30.10;;;;;;5054908;28;8789;-66
2021/11/24 11:53:49;;;;;;;;;62.33;50.67;22.30;29.50;;;;;;5054420;28;8803;-65
2021/11/24 11:56:23;;;;;;;;;55.33;46.67;22.90;29.40;;;;;;5054122;28;8948;-64
2021/11/24 11:59:16;;;;;;;;;57.33;48.00;24.80;26.80;;;;;;5054279;28;8795;-66
2021/11/24 12:01:41;;;;;;;;;53.33;44.67;25.30;26.00;;;;;;5039852;28;8778;-64
2021/11/24 12:04:17;;;;;;;;;59.75;49.75;26.50;25.20;;;;;;5034319;28;8786;-65
2021/11/24 12:06:42;;;;;;;;;60.00;49.33;27.80;23.80;;;;;;5034424;28;8796;-65
2021/11/24 12:09:28;;;;;;;;;52.00;44.00;27.40;24.00;;;;;;5034113;28;8773;-66
2021/11/24 12:14:50;;;;;;;;;62.00;51.33;24.80;26.10;;;;;;5034374;28;8753;-65
2021/11/24 12:17:31;;;;;;;;;63.25;51.25;26.30;24.80;;;;;;5034382;28;8777;-66
2021/11/24 12:20:04;;;;;;;;;55.33;46.00;26.20;24.90;;;;;;5034318;28;8928;-65
2021/11/24 12:27:51;;;;;;;;;57.00;47.00;24.30;26.20;;;;;;5054263;28;8772;-65
2021/11/24 12:33:14;;;;;;;;;52.33;44.00;23.80;26.70;;;;;;5034058;28;8758;-66
2021/11/24 12:35:51;;;;;;;;;50.00;42.33;24.20;25.70;;;;;;5033880;28;8801;-66
2021/11/24 12:38:19;;;;;;;;;50.33;42.67;24.40;24.90;;;;;;5034238;28;8789;-65
2021/11/24 12:40:48;;;;;;;;;48.00;40.33;23.90;25.60;;;;;;5034111;28;8777;-64
2021/11/24 12:43:18;;;;;;;;;46.00;39.33;24.00;25.40;;;;;;5033864;28;8880;-65
2021/11/24 12:46:02;;;;;;;;;45.33;39.33;22.90;26.10;;;;;;5033854;28;8784;-65
2021/11/24 12:48:52;;;;;;;;;48.33;41.00;22.50;26.60;;;;;;5033922;28;8820;-63